sensor_id;sensor_type;location;lat;lon;timestamp;temperature;humidity
6291;DHT22;3178;48.730;8.990;2023-03-14T00:01:00;9.40;99.90
6291;DHT22;3178;48.730;8.990;2023-03-14T00:03:25;9.40;99.90
6291;DHT22;3178;48.730;8.990;2023-03-14T00:05:51;9.40;99.90
6291;DHT22;3178;48.730;8.990;2023-03-14T00:08:16;9.40;99.90
6291;DHT22;3178;48.730;8.990;2023-03-14T00:10:43;9.40;99.90
6291;DHT22;3178;48.730;8.990;2023-03-14T00:13:09;9.40;99.90
6291;DHT22;3178;48.730;8.990;2023-03-14T00:15:35;9.30;99.90
6291;DHT22;3178;48.730;8.990;2023-03-14T00:18:00;9.30;99.90
6291;DHT22;3178;48.730;8.990;2023-03-14T00:20:26;9.30;99.90
6291;DHT22;3178;48.730;8.990;2023-03-14T00:22:52;9.30;99.90
6291;DHT22;3178;48.730;8.990;2023-03-14T00:25:18;9.30;99.90
6291;DHT22;3178;48.730;8.990;2023-03-14T00:27:43;9.30;99.90
6291;DHT22;3178;48.730;8.990;2023-03-14T00:30:09;9.30;99.90
6291;DHT22;3178;48.730;8.990;2023-03-14T00:32:35;9.30;99.90
6291;DHT22;3178;48.730;8.990;2023-03-14T00:35:01;9.30;99.90
6291;DHT22;3178;48.730;8.990;2023-03-14T00:37:27;9.40;99.90
6291;DHT22;3178;48.730;8.990;2023-03-14T00:39:52;9.40;99.90
6291;DHT22;3178;48.730;8.990;2023-03-14T00:42:18;9.40;99.90
6291;DHT22;3178;48.730;8.990;2023-03-14T00:44:44;9.40;99.90
6291;DHT22;3178;48.730;8.990;2023-03-14T00:47:09;9.40;99.90
6291;DHT22;3178;48.730;8.990;2023-03-14T00:49:35;9.40;99.90
6291;DHT22;3178;48.730;8.990;2023-03-14T00:52:00;9.40;99.90
6291;DHT22;3178;48.730;8.990;2023-03-14T00:54:26;9.40;99.90
6291;DHT22;3178;48.730;8.990;2023-03-14T00:56:52;9.40;99.90
6291;DHT22;3178;48.730;8.990;2023-03-14T00:59:17;9.40;99.90
6291;DHT22;3178;48.730;8.990;2023-03-14T01:01:43;9.40;99.90
6291;DHT22;3178;48.730;8.990;2023-03-14T01:04:09;9.40;99.90
6291;DHT22;3178;48.730;8.990;2023-03-14T01:06:35;9.40;99.90
6291;DHT22;3178;48.730;8.990;2023-03-14T01:09:00;9.40;99.90
6291;DHT22;3178;48.730;8.990;2023-03-14T01:11:28;9.40;99.90
6291;DHT22;3178;48.730;8.990;2023-03-14T01:13:55;9.60;99.90
6291;DHT22;3178;48.730;8.990;2023-03-14T01:16:24;9.40;99.90
6291;DHT22;3178;48.730;8.990;2023-03-14T01:18:50;9.40;99.90
6291;DHT22;3178;48.730;8.990;2023-03-14T01:21:21;9.40;99.90
6291;DHT22;3178;48.730;8.990;2023-03-14T01:23:48;9.40;99.90
6291;DHT22;3178;48.730;8.990;2023-03-14T01:26:16;9.40;99.90
6291;DHT22;3178;48.730;8.990;2023-03-14T01:28:44;9.40;99.90
6291;DHT22;3178;48.730;8.990;2023-03-14T01:31:10;9.40;99.90
6291;DHT22;3178;48.730;8.990;2023-03-14T01:33:36;9.40;99.90
6291;DHT22;3178;48.730;8.990;2023-03-14T01:36:03;9.40;99.90
6291;DHT22;3178;48.730;8.990;2023-03-14T01:38:29;9.40;99.90
6291;DHT22;3178;48.730;8.990;2023-03-14T01:40:55;9.40;99.90
6291;DHT22;3178;48.730;8.990;2023-03-14T01:43:21;9.40;99.90
6291;DHT22;3178;48.730;8.990;2023-03-14T01:51:24;9.40;99.90
6291;DHT22;3178;48.730;8.990;2023-03-14T01:53:53;9.30;99.90
6291;DHT22;3178;48.730;8.990;2023-03-14T01:56:19;9.30;99.90
6291;DHT22;3178;48.730;8.990;2023-03-14T01:58:47;9.30;99.90
6291;DHT22;3178;48.730;8.990;2023-03-14T02:01:16;9.30;99.90
6291;DHT22;3178;48.730;8.990;2023-03-14T02:03:52;9.30;99.90
6291;DHT22;3178;48.730;8.990;2023-03-14T02:06:22;9.30;99.90
6291;DHT22;3178;48.730;8.990;2023-03-14T02:08:50;9.30;99.90
6291;DHT22;3178;48.730;8.990;2023-03-14T02:11:17;9.20;99.90
6291;DHT22;3178;48.730;8.990;2023-03-14T02:13:44;9.20;99.90
6291;DHT22;3178;48.730;8.990;2023-03-14T02:16:09;9.20;99.90
6291;DHT22;3178;48.730;8.990;2023-03-14T02:18:35;9.20;99.90
6291;DHT22;3178;48.730;8.990;2023-03-14T02:21:14;9.20;99.90
6291;DHT22;3178;48.730;8.990;2023-03-14T02:27:11;9.20;99.90
6291;DHT22;3178;48.730;8.990;2023-03-14T02:29:41;9.20;99.90
6291;DHT22;3178;48.730;8.990;2023-03-14T02:32:08;9.20;99.90
6291;DHT22;3178;48.730;8.990;2023-03-14T02:34:34;9.20;99.90
6291;DHT22;3178;48.730;8.990;2023-03-14T02:37:02;9.10;99.90
6291;DHT22;3178;48.730;8.990;2023-03-14T02:39:35;9.10;99.90
6291;DHT22;3178;48.730;8.990;2023-03-14T02:42:02;9.10;99.90
6291;DHT22;3178;48.730;8.990;2023-03-14T02:44:27;9.10;99.90
6291;DHT22;3178;48.730;8.990;2023-03-14T02:46:53;9.10;99.90
6291;DHT22;3178;48.730;8.990;2023-03-14T02:49:18;9.10;99.90
6291;DHT22;3178;48.730;8.990;2023-03-14T02:51:45;9.10;99.90
6291;DHT22;3178;48.730;8.990;2023-03-14T02:54:11;9.20;99.90
6291;DHT22;3178;48.730;8.990;2023-03-14T02:56:37;9.10;99.90
6291;DHT22;3178;48.730;8.990;2023-03-14T02:59:06;9.10;99.90
6291;DHT22;3178;48.730;8.990;2023-03-14T03:01:32;9.10;99.90
6291;DHT22;3178;48.730;8.990;2023-03-14T03:03:58;9.10;99.90
6291;DHT22;3178;48.730;8.990;2023-03-14T03:06:24;9.10;99.90
6291;DHT22;3178;48.730;8.990;2023-03-14T03:08:49;9.10;99.90
6291;DHT22;3178;48.730;8.990;2023-03-14T03:11:15;9.10;99.90
6291;DHT22;3178;48.730;8.990;2023-03-14T03:13:40;9.00;99.90
6291;DHT22;3178;48.730;8.990;2023-03-14T03:16:06;9.00;99.90
6291;DHT22;3178;48.730;8.990;2023-03-14T03:18:32;9.00;99.90
6291;DHT22;3178;48.730;8.990;2023-03-14T03:21:02;9.00;99.90
6291;DHT22;3178;48.730;8.990;2023-03-14T03:23:28;9.00;99.90
6291;DHT22;3178;48.730;8.990;2023-03-14T03:25:54;9.00;99.90
6291;DHT22;3178;48.730;8.990;2023-03-14T03:28:19;8.90;99.90
6291;DHT22;3178;48.730;8.990;2023-03-14T03:30:45;8.80;99.90
6291;DHT22;3178;48.730;8.990;2023-03-14T03:33:12;8.90;99.90
6291;DHT22;3178;48.730;8.990;2023-03-14T03:35:46;8.80;99.90
6291;DHT22;3178;48.730;8.990;2023-03-14T03:38:12;8.80;99.90
6291;DHT22;3178;48.730;8.990;2023-03-14T03:40:38;8.80;99.90
6291;DHT22;3178;48.730;8.990;2023-03-14T03:43:04;8.80;99.90
6291;DHT22;3178;48.730;8.990;2023-03-14T03:45:29;8.80;99.90
6291;DHT22;3178;48.730;8.990;2023-03-14T03:47:55;8.80;99.90
6291;DHT22;3178;48.730;8.990;2023-03-14T03:50:21;8.80;99.90
6291;DHT22;3178;48.730;8.990;2023-03-14T03:52:46;8.70;99.90
6291;DHT22;3178;48.730;8.990;2023-03-14T03:55:12;8.70;99.90
6291;DHT22;3178;48.730;8.990;2023-03-14T03:57:37;8.70;99.90
6291;DHT22;3178;48.730;8.990;2023-03-14T04:00:04;8.70;99.90
6291;DHT22;3178;48.730;8.990;2023-03-14T04:02:31;8.60;99.90
6291;DHT22;3178;48.730;8.990;2023-03-14T04:04:56;8.60;99.90
6291;DHT22;3178;48.730;8.990;2023-03-14T04:07:22;8.60;99.90
6291;DHT22;3178;48.730;8.990;2023-03-14T04:09:47;8.60;99.90
6291;DHT22;3178;48.730;8.990;2023-03-14T04:12:13;8.60;99.90
6291;DHT22;3178;48.730;8.990;2023-03-14T04:14:38;8.60;99.90
6291;DHT22;3178;48.730;8.990;2023-03-14T04:17:06;8.50;99.90
6291;DHT22;3178;48.730;8.990;2023-03-14T04:19:32;8.50;99.90
6291;DHT22;3178;48.730;8.990;2023-03-14T04:21:57;8.50;99.90
6291;DHT22;3178;48.730;8.990;2023-03-14T04:24:23;8.50;99.90
6291;DHT22;3178;48.730;8.990;2023-03-14T04:26:48;8.50;99.90
6291;DHT22;3178;48.730;8.990;2023-03-14T04:29:14;8.50;99.90
6291;DHT22;3178;48.730;8.990;2023-03-14T04:31:40;8.50;99.90
6291;DHT22;3178;48.730;8.990;2023-03-14T04:34:05;8.50;99.90
6291;DHT22;3178;48.730;8.990;2023-03-14T04:36:31;8.50;99.90
6291;DHT22;3178;48.730;8.990;2023-03-14T04:38:56;8.40;99.90
6291;DHT22;3178;48.730;8.990;2023-03-14T04:41:22;8.40;99.90
6291;DHT22;3178;48.730;8.990;2023-03-14T04:43:48;8.40;99.90
6291;DHT22;3178;48.730;8.990;2023-03-14T04:46:13;8.40;99.90
6291;DHT22;3178;48.730;8.990;2023-03-14T04:48:39;8.40;99.90
6291;DHT22;3178;48.730;8.990;2023-03-14T04:51:05;8.40;99.90
6291;DHT22;3178;48.730;8.990;2023-03-14T04:53:30;8.40;99.90
6291;DHT22;3178;48.730;8.990;2023-03-14T04:55:56;8.40;99.90
6291;DHT22;3178;48.730;8.990;2023-03-14T04:58:22;8.40;99.90
6291;DHT22;3178;48.730;8.990;2023-03-14T05:00:48;8.40;99.90
6291;DHT22;3178;48.730;8.990;2023-03-14T05:03:15;8.40;99.90
6291;DHT22;3178;48.730;8.990;2023-03-14T05:05:41;8.40;99.90
6291;DHT22;3178;48.730;8.990;2023-03-14T05:08:07;8.40;99.90
6291;DHT22;3178;48.730;8.990;2023-03-14T05:10:32;8.40;99.90
6291;DHT22;3178;48.730;8.990;2023-03-14T05:12:58;8.40;99.90
6291;DHT22;3178;48.730;8.990;2023-03-14T05:15:23;8.40;99.90
6291;DHT22;3178;48.730;8.990;2023-03-14T05:17:49;8.40;99.90
6291;DHT22;3178;48.730;8.990;2023-03-14T05:20:15;8.40;99.90
6291;DHT22;3178;48.730;8.990;2023-03-14T05:22:41;8.40;99.90
6291;DHT22;3178;48.730;8.990;2023-03-14T05:25:07;8.40;99.90
6291;DHT22;3178;48.730;8.990;2023-03-14T05:27:33;8.40;99.90
6291;DHT22;3178;48.730;8.990;2023-03-14T05:30:02;8.40;99.90
6291;DHT22;3178;48.730;8.990;2023-03-14T05:32:27;8.40;99.90
6291;DHT22;3178;48.730;8.990;2023-03-14T05:34:53;8.40;99.90
6291;DHT22;3178;48.730;8.990;2023-03-14T05:37:23;8.50;99.90
6291;DHT22;3178;48.730;8.990;2023-03-14T05:39:49;8.50;99.90
6291;DHT22;3178;48.730;8.990;2023-03-14T05:42:14;8.50;99.90
6291;DHT22;3178;48.730;8.990;2023-03-14T05:44:40;8.50;99.90
6291;DHT22;3178;48.730;8.990;2023-03-14T05:47:05;8.50;99.90
6291;DHT22;3178;48.730;8.990;2023-03-14T05:49:31;8.50;99.90
6291;DHT22;3178;48.730;8.990;2023-03-14T05:51:56;8.50;99.90
6291;DHT22;3178;48.730;8.990;2023-03-14T05:54:22;8.50;99.90
6291;DHT22;3178;48.730;8.990;2023-03-14T05:56:47;8.60;99.90
6291;DHT22;3178;48.730;8.990;2023-03-14T05:59:13;8.60;99.90
6291;DHT22;3178;48.730;8.990;2023-03-14T06:01:39;8.60;99.90
6291;DHT22;3178;48.730;8.990;2023-03-14T06:04:05;8.60;99.90
6291;DHT22;3178;48.730;8.990;2023-03-14T06:06:31;8.60;99.90
6291;DHT22;3178;48.730;8.990;2023-03-14T06:08:56;8.60;99.90
6291;DHT22;3178;48.730;8.990;2023-03-14T06:11:22;8.60;99.90
6291;DHT22;3178;48.730;8.990;2023-03-14T06:13:47;8.60;99.90
6291;DHT22;3178;48.730;8.990;2023-03-14T06:16:13;8.50;99.90
6291;DHT22;3178;48.730;8.990;2023-03-14T06:18:39;8.60;99.90
6291;DHT22;3178;48.730;8.990;2023-03-14T06:21:05;8.50;99.90
6291;DHT22;3178;48.730;8.990;2023-03-14T06:23:31;8.50;99.90
6291;DHT22;3178;48.730;8.990;2023-03-14T06:25:57;8.50;99.90
6291;DHT22;3178;48.730;8.990;2023-03-14T06:28:22;8.50;99.90
6291;DHT22;3178;48.730;8.990;2023-03-14T06:30:48;8.60;99.90
6291;DHT22;3178;48.730;8.990;2023-03-14T06:33:14;8.60;99.90
6291;DHT22;3178;48.730;8.990;2023-03-14T06:35:39;8.60;99.90
6291;DHT22;3178;48.730;8.990;2023-03-14T06:38:05;8.60;99.90
6291;DHT22;3178;48.730;8.990;2023-03-14T06:40:30;8.60;99.90
6291;DHT22;3178;48.730;8.990;2023-03-14T06:42:56;8.60;99.90
6291;DHT22;3178;48.730;8.990;2023-03-14T06:45:21;8.70;99.90
6291;DHT22;3178;48.730;8.990;2023-03-14T06:47:47;8.70;99.90
6291;DHT22;3178;48.730;8.990;2023-03-14T06:50:13;8.80;99.90
6291;DHT22;3178;48.730;8.990;2023-03-14T06:52:38;8.80;99.90
6291;DHT22;3178;48.730;8.990;2023-03-14T06:55:07;8.90;99.90
6291;DHT22;3178;48.730;8.990;2023-03-14T06:57:33;9.00;99.90
6291;DHT22;3178;48.730;8.990;2023-03-14T06:59:59;9.00;99.90
6291;DHT22;3178;48.730;8.990;2023-03-14T07:02:24;9.10;99.90
6291;DHT22;3178;48.730;8.990;2023-03-14T07:04:50;9.20;99.90
6291;DHT22;3178;48.730;8.990;2023-03-14T07:07:15;9.20;99.90
6291;DHT22;3178;48.730;8.990;2023-03-14T07:09:41;9.30;99.90
6291;DHT22;3178;48.730;8.990;2023-03-14T07:12:07;9.50;99.90
6291;DHT22;3178;48.730;8.990;2023-03-14T07:14:32;9.50;99.90
6291;DHT22;3178;48.730;8.990;2023-03-14T07:16:58;9.50;99.90
6291;DHT22;3178;48.730;8.990;2023-03-14T07:19:24;9.50;99.90
6291;DHT22;3178;48.730;8.990;2023-03-14T07:21:49;9.70;99.90
6291;DHT22;3178;48.730;8.990;2023-03-14T07:24:15;9.90;99.90
6291;DHT22;3178;48.730;8.990;2023-03-14T07:26:40;10.00;99.90
6291;DHT22;3178;48.730;8.990;2023-03-14T07:29:06;10.10;99.90
6291;DHT22;3178;48.730;8.990;2023-03-14T07:31:32;10.30;99.90
6291;DHT22;3178;48.730;8.990;2023-03-14T07:33:57;10.50;99.90
6291;DHT22;3178;48.730;8.990;2023-03-14T07:36:23;10.70;99.90
6291;DHT22;3178;48.730;8.990;2023-03-14T07:38:49;11.00;99.90
6291;DHT22;3178;48.730;8.990;2023-03-14T07:41:14;11.20;99.90
6291;DHT22;3178;48.730;8.990;2023-03-14T07:43:40;11.50;99.90
6291;DHT22;3178;48.730;8.990;2023-03-14T07:46:06;11.70;99.90
6291;DHT22;3178;48.730;8.990;2023-03-14T07:48:32;11.90;99.90
6291;DHT22;3178;48.730;8.990;2023-03-14T07:50:57;12.10;99.90
6291;DHT22;3178;48.730;8.990;2023-03-14T07:53:24;12.00;99.90
6291;DHT22;3178;48.730;8.990;2023-03-14T07:55:51;12.00;99.90
6291;DHT22;3178;48.730;8.990;2023-03-14T07:58:17;12.20;99.90
6291;DHT22;3178;48.730;8.990;2023-03-14T08:00:43;12.40;99.90
6291;DHT22;3178;48.730;8.990;2023-03-14T08:03:09;12.60;99.90
6291;DHT22;3178;48.730;8.990;2023-03-14T08:05:36;12.70;99.90
6291;DHT22;3178;48.730;8.990;2023-03-14T08:08:02;12.60;99.90
6291;DHT22;3178;48.730;8.990;2023-03-14T08:10:27;12.50;99.90
6291;DHT22;3178;48.730;8.990;2023-03-14T08:12:54;12.40;99.90
6291;DHT22;3178;48.730;8.990;2023-03-14T08:15:20;12.20;99.90
6291;DHT22;3178;48.730;8.990;2023-03-14T08:17:46;12.30;99.90
6291;DHT22;3178;48.730;8.990;2023-03-14T08:20:19;12.30;99.90
6291;DHT22;3178;48.730;8.990;2023-03-14T08:22:45;12.60;99.90
6291;DHT22;3178;48.730;8.990;2023-03-14T08:25:11;13.00;99.90
6291;DHT22;3178;48.730;8.990;2023-03-14T08:27:37;13.30;99.90
6291;DHT22;3178;48.730;8.990;2023-03-14T08:30:07;13.50;99.90
6291;DHT22;3178;48.730;8.990;2023-03-14T08:32:33;13.50;99.90
6291;DHT22;3178;48.730;8.990;2023-03-14T08:34:59;13.40;99.90
6291;DHT22;3178;48.730;8.990;2023-03-14T08:37:24;13.10;99.90
6291;DHT22;3178;48.730;8.990;2023-03-14T08:39:51;12.90;99.90
6291;DHT22;3178;48.730;8.990;2023-03-14T08:42:17;12.60;99.90
6291;DHT22;3178;48.730;8.990;2023-03-14T08:44:43;12.40;99.90
6291;DHT22;3178;48.730;8.990;2023-03-14T08:47:08;12.40;99.90
6291;DHT22;3178;48.730;8.990;2023-03-14T08:49:34;12.30;99.90
6291;DHT22;3178;48.730;8.990;2023-03-14T08:52:04;12.50;99.90
6291;DHT22;3178;48.730;8.990;2023-03-14T08:54:30;12.20;99.90
6291;DHT22;3178;48.730;8.990;2023-03-14T08:56:56;12.30;99.90
6291;DHT22;3178;48.730;8.990;2023-03-14T08:59:22;12.10;99.90
6291;DHT22;3178;48.730;8.990;2023-03-14T09:01:48;11.90;99.90
6291;DHT22;3178;48.730;8.990;2023-03-14T09:04:13;11.80;99.90
6291;DHT22;3178;48.730;8.990;2023-03-14T09:06:39;11.50;99.90
6291;DHT22;3178;48.730;8.990;2023-03-14T09:09:05;11.30;99.90
6291;DHT22;3178;48.730;8.990;2023-03-14T09:11:30;11.20;99.90
6291;DHT22;3178;48.730;8.990;2023-03-14T09:13:56;11.10;99.90
6291;DHT22;3178;48.730;8.990;2023-03-14T09:16:22;11.10;99.90
6291;DHT22;3178;48.730;8.990;2023-03-14T09:18:47;10.90;99.90
6291;DHT22;3178;48.730;8.990;2023-03-14T09:21:13;10.80;99.90
6291;DHT22;3178;48.730;8.990;2023-03-14T09:23:39;10.90;99.90
6291;DHT22;3178;48.730;8.990;2023-03-14T09:26:05;10.90;99.90
6291;DHT22;3178;48.730;8.990;2023-03-14T09:28:31;11.00;99.90
6291;DHT22;3178;48.730;8.990;2023-03-14T09:30:57;10.90;99.90
6291;DHT22;3178;48.730;8.990;2023-03-14T09:33:23;11.00;99.90
6291;DHT22;3178;48.730;8.990;2023-03-14T09:35:49;11.00;99.90
6291;DHT22;3178;48.730;8.990;2023-03-14T09:38:15;11.00;99.90
6291;DHT22;3178;48.730;8.990;2023-03-14T09:40:41;11.00;99.90
6291;DHT22;3178;48.730;8.990;2023-03-14T09:43:14;11.00;99.90
6291;DHT22;3178;48.730;8.990;2023-03-14T09:45:41;11.00;99.90
6291;DHT22;3178;48.730;8.990;2023-03-14T09:48:15;11.00;99.90
6291;DHT22;3178;48.730;8.990;2023-03-14T09:51:06;11.00;99.90
6291;DHT22;3178;48.730;8.990;2023-03-14T09:53:42;11.00;99.90
6291;DHT22;3178;48.730;8.990;2023-03-14T09:56:23;11.00;99.90
6291;DHT22;3178;48.730;8.990;2023-03-14T09:58:54;11.10;99.90
6291;DHT22;3178;48.730;8.990;2023-03-14T10:01:28;11.10;99.90
6291;DHT22;3178;48.730;8.990;2023-03-14T10:03:56;11.30;99.90
6291;DHT22;3178;48.730;8.990;2023-03-14T10:06:25;11.50;99.90
6291;DHT22;3178;48.730;8.990;2023-03-14T10:08:51;11.70;99.90
6291;DHT22;3178;48.730;8.990;2023-03-14T10:11:18;12.20;99.90
6291;DHT22;3178;48.730;8.990;2023-03-14T10:14:02;12.70;99.90
6291;DHT22;3178;48.730;8.990;2023-03-14T10:16:31;12.90;99.90
6291;DHT22;3178;48.730;8.990;2023-03-14T10:19:05;12.80;99.90
6291;DHT22;3178;48.730;8.990;2023-03-14T10:21:41;12.80;99.90
6291;DHT22;3178;48.730;8.990;2023-03-14T10:24:34;12.50;99.90
6291;DHT22;3178;48.730;8.990;2023-03-14T10:27:05;12.10;99.90
6291;DHT22;3178;48.730;8.990;2023-03-14T10:32:20;11.90;99.90
6291;DHT22;3178;48.730;8.990;2023-03-14T10:37:58;11.80;99.90
6291;DHT22;3178;48.730;8.990;2023-03-14T10:40:28;11.70;99.90
6291;DHT22;3178;48.730;8.990;2023-03-14T10:42:55;11.70;99.90
6291;DHT22;3178;48.730;8.990;2023-03-14T10:47:59;11.60;99.90
6291;DHT22;3178;48.730;8.990;2023-03-14T10:50:31;11.50;99.90
6291;DHT22;3178;48.730;8.990;2023-03-14T10:53:01;11.40;99.90
6291;DHT22;3178;48.730;8.990;2023-03-14T10:55:44;11.30;99.90
6291;DHT22;3178;48.730;8.990;2023-03-14T10:58:30;11.20;99.90
6291;DHT22;3178;48.730;8.990;2023-03-14T11:03:56;11.10;99.90
6291;DHT22;3178;48.730;8.990;2023-03-14T11:06:56;11.10;99.90
6291;DHT22;3178;48.730;8.990;2023-03-14T11:09:40;11.10;99.90
6291;DHT22;3178;48.730;8.990;2023-03-14T11:12:30;11.10;99.90
6291;DHT22;3178;48.730;8.990;2023-03-14T11:15:09;11.00;99.90
6291;DHT22;3178;48.730;8.990;2023-03-14T11:20:42;10.90;99.90
6291;DHT22;3178;48.730;8.990;2023-03-14T11:28:37;10.70;99.90
6291;DHT22;3178;48.730;8.990;2023-03-14T11:31:35;10.70;99.90
6291;DHT22;3178;48.730;8.990;2023-03-14T11:34:10;10.80;99.90
6291;DHT22;3178;48.730;8.990;2023-03-14T11:36:38;10.70;99.90
6291;DHT22;3178;48.730;8.990;2023-03-14T11:39:19;10.60;99.90
6291;DHT22;3178;48.730;8.990;2023-03-14T11:41:52;10.60;99.90
6291;DHT22;3178;48.730;8.990;2023-03-14T11:52:36;10.50;99.90
6291;DHT22;3178;48.730;8.990;2023-03-14T11:55:05;10.40;99.90
6291;DHT22;3178;48.730;8.990;2023-03-14T11:57:32;10.40;99.90
6291;DHT22;3178;48.730;8.990;2023-03-14T12:00:17;10.40;99.90
6291;DHT22;3178;48.730;8.990;2023-03-14T12:05:37;10.40;99.90
6291;DHT22;3178;48.730;8.990;2023-03-14T12:10:49;10.50;99.90
6291;DHT22;3178;48.730;8.990;2023-03-14T12:13:17;10.40;99.90
6291;DHT22;3178;48.730;8.990;2023-03-14T12:15:59;10.40;99.90
6291;DHT22;3178;48.730;8.990;2023-03-14T12:18:31;10.50;99.90
6291;DHT22;3178;48.730;8.990;2023-03-14T12:21:02;10.80;99.90
6291;DHT22;3178;48.730;8.990;2023-03-14T12:23:40;11.00;99.90
6291;DHT22;3178;48.730;8.990;2023-03-14T12:26:12;11.00;99.90
6291;DHT22;3178;48.730;8.990;2023-03-14T12:28:52;10.90;99.90
6291;DHT22;3178;48.730;8.990;2023-03-14T12:34:46;11.40;99.90
6291;DHT22;3178;48.730;8.990;2023-03-14T12:45:25;12.20;99.90
6291;DHT22;3178;48.730;8.990;2023-03-14T12:47:53;12.70;99.90
6291;DHT22;3178;48.730;8.990;2023-03-14T12:50:25;13.20;99.90
6291;DHT22;3178;48.730;8.990;2023-03-14T12:53:38;13.40;99.90
6291;DHT22;3178;48.730;8.990;2023-03-14T12:56:22;13.50;99.90
6291;DHT22;3178;48.730;8.990;2023-03-14T12:59:18;13.50;99.90
6291;DHT22;3178;48.730;8.990;2023-03-14T13:02:21;13.30;99.90
6291;DHT22;3178;48.730;8.990;2023-03-14T13:04:48;13.10;99.90
6291;DHT22;3178;48.730;8.990;2023-03-14T13:10:14;12.50;99.90
6291;DHT22;3178;48.730;8.990;2023-03-14T13:12:56;12.40;99.90
6291;DHT22;3178;48.730;8.990;2023-03-14T13:15:30;12.50;99.90
6291;DHT22;3178;48.730;8.990;2023-03-14T13:18:02;12.60;99.90
6291;DHT22;3178;48.730;8.990;2023-03-14T13:20:36;12.40;99.90
6291;DHT22;3178;48.730;8.990;2023-03-14T13:23:03;12.20;99.90
6291;DHT22;3178;48.730;8.990;2023-03-14T13:25:33;12.10;99.90
6291;DHT22;3178;48.730;8.990;2023-03-14T13:28:01;11.80;99.90
6291;DHT22;3178;48.730;8.990;2023-03-14T13:30:49;11.30;99.90
6291;DHT22;3178;48.730;8.990;2023-03-14T13:33:19;11.00;99.90
6291;DHT22;3178;48.730;8.990;2023-03-14T13:36:08;10.80;99.90
6291;DHT22;3178;48.730;8.990;2023-03-14T13:38:35;10.50;99.90
6291;DHT22;3178;48.730;8.990;2023-03-14T13:41:05;10.40;99.90
6291;DHT22;3178;48.730;8.990;2023-03-14T13:43:40;10.10;99.90
6291;DHT22;3178;48.730;8.990;2023-03-14T13:46:20;9.90;99.90
6291;DHT22;3178;48.730;8.990;2023-03-14T13:48:58;9.80;99.90
6291;DHT22;3178;48.730;8.990;2023-03-14T13:51:24;9.80;99.90
6291;DHT22;3178;48.730;8.990;2023-03-14T13:53:54;9.70;99.90
6291;DHT22;3178;48.730;8.990;2023-03-14T13:56:22;9.60;99.90
6291;DHT22;3178;48.730;8.990;2023-03-14T13:58:49;9.50;99.90
6291;DHT22;3178;48.730;8.990;2023-03-14T14:01:18;9.50;99.90
6291;DHT22;3178;48.730;8.990;2023-03-14T14:03:47;9.60;99.90
6291;DHT22;3178;48.730;8.990;2023-03-14T14:06:47;9.40;99.90
6291;DHT22;3178;48.730;8.990;2023-03-14T14:09:17;9.30;99.90
6291;DHT22;3178;48.730;8.990;2023-03-14T14:14:38;9.30;99.90
6291;DHT22;3178;48.730;8.990;2023-03-14T14:17:05;9.30;99.90
6291;DHT22;3178;48.730;8.990;2023-03-14T14:19:34;9.10;99.90
6291;DHT22;3178;48.730;8.990;2023-03-14T14:22:01;9.10;99.90
6291;DHT22;3178;48.730;8.990;2023-03-14T14:24:30;9.10;99.90
6291;DHT22;3178;48.730;8.990;2023-03-14T14:27:15;9.00;99.90
6291;DHT22;3178;48.730;8.990;2023-03-14T14:29:42;8.90;99.90
6291;DHT22;3178;48.730;8.990;2023-03-14T14:37:32;8.80;99.90
6291;DHT22;3178;48.730;8.990;2023-03-14T14:40:01;8.80;99.90
6291;DHT22;3178;48.730;8.990;2023-03-14T14:42:32;8.80;99.90
6291;DHT22;3178;48.730;8.990;2023-03-14T14:44:58;8.90;99.90
6291;DHT22;3178;48.730;8.990;2023-03-14T14:47:27;8.90;99.90
6291;DHT22;3178;48.730;8.990;2023-03-14T14:49:54;8.90;99.90
6291;DHT22;3178;48.730;8.990;2023-03-14T14:52:33;8.80;99.90
6291;DHT22;3178;48.730;8.990;2023-03-14T14:54:59;8.80;99.90
6291;DHT22;3178;48.730;8.990;2023-03-14T14:57:28;8.90;99.90
6291;DHT22;3178;48.730;8.990;2023-03-14T15:00:00;8.80;99.90
6291;DHT22;3178;48.730;8.990;2023-03-14T15:02:53;8.80;99.90
6291;DHT22;3178;48.730;8.990;2023-03-14T15:05:22;9.00;99.90
6291;DHT22;3178;48.730;8.990;2023-03-14T15:07:48;9.00;99.90
6291;DHT22;3178;48.730;8.990;2023-03-14T15:10:20;9.00;99.90
6291;DHT22;3178;48.730;8.990;2023-03-14T15:12:46;9.10;99.90
6291;DHT22;3178;48.730;8.990;2023-03-14T15:15:14;9.20;99.90
6291;DHT22;3178;48.730;8.990;2023-03-14T15:17:40;9.20;99.90
6291;DHT22;3178;48.730;8.990;2023-03-14T15:20:10;9.30;99.90
6291;DHT22;3178;48.730;8.990;2023-03-14T15:22:38;9.30;99.90
6291;DHT22;3178;48.730;8.990;2023-03-14T15:25:04;9.40;99.90
6291;DHT22;3178;48.730;8.990;2023-03-14T15:27:31;9.40;99.90
6291;DHT22;3178;48.730;8.990;2023-03-14T15:29:57;9.50;99.90
6291;DHT22;3178;48.730;8.990;2023-03-14T15:32:24;9.50;99.90
6291;DHT22;3178;48.730;8.990;2023-03-14T15:34:53;9.50;99.90
6291;DHT22;3178;48.730;8.990;2023-03-14T15:37:19;9.50;99.90
6291;DHT22;3178;48.730;8.990;2023-03-14T15:39:45;9.50;99.90
6291;DHT22;3178;48.730;8.990;2023-03-14T15:42:11;9.50;99.90
6291;DHT22;3178;48.730;8.990;2023-03-14T15:44:37;9.40;99.90
6291;DHT22;3178;48.730;8.990;2023-03-14T15:47:02;9.50;99.90
6291;DHT22;3178;48.730;8.990;2023-03-14T15:49:28;9.30;99.90
6291;DHT22;3178;48.730;8.990;2023-03-14T15:51:54;9.30;99.90
6291;DHT22;3178;48.730;8.990;2023-03-14T15:54:20;9.20;99.90
6291;DHT22;3178;48.730;8.990;2023-03-14T15:56:45;9.10;99.90
6291;DHT22;3178;48.730;8.990;2023-03-14T15:59:11;9.00;99.90
6291;DHT22;3178;48.730;8.990;2023-03-14T16:01:36;8.90;99.90
6291;DHT22;3178;48.730;8.990;2023-03-14T16:04:02;8.80;99.90
6291;DHT22;3178;48.730;8.990;2023-03-14T16:06:28;8.90;99.90
6291;DHT22;3178;48.730;8.990;2023-03-14T16:08:54;8.90;99.90
6291;DHT22;3178;48.730;8.990;2023-03-14T16:11:20;8.80;99.90
6291;DHT22;3178;48.730;8.990;2023-03-14T16:13:46;8.80;99.90
6291;DHT22;3178;48.730;8.990;2023-03-14T16:16:12;8.90;99.90
6291;DHT22;3178;48.730;8.990;2023-03-14T16:18:38;8.90;99.90
6291;DHT22;3178;48.730;8.990;2023-03-14T16:21:16;8.90;99.90
6291;DHT22;3178;48.730;8.990;2023-03-14T16:23:41;8.90;99.90
6291;DHT22;3178;48.730;8.990;2023-03-14T16:26:12;8.90;99.90
6291;DHT22;3178;48.730;8.990;2023-03-14T16:28:40;8.90;99.90
6291;DHT22;3178;48.730;8.990;2023-03-14T16:31:08;8.90;99.90
6291;DHT22;3178;48.730;8.990;2023-03-14T16:33:36;8.90;99.90
6291;DHT22;3178;48.730;8.990;2023-03-14T16:36:03;8.80;99.90
6291;DHT22;3178;48.730;8.990;2023-03-14T16:38:38;8.70;99.90
6291;DHT22;3178;48.730;8.990;2023-03-14T16:43:31;8.70;99.90
6291;DHT22;3178;48.730;8.990;2023-03-14T16:45:59;8.60;99.90
6291;DHT22;3178;48.730;8.990;2023-03-14T16:48:26;8.60;99.90
6291;DHT22;3178;48.730;8.990;2023-03-14T16:50:51;8.60;99.90
6291;DHT22;3178;48.730;8.990;2023-03-14T16:53:20;8.60;99.90
6291;DHT22;3178;48.730;8.990;2023-03-14T16:55:46;8.80;99.90
6291;DHT22;3178;48.730;8.990;2023-03-14T16:58:12;8.60;99.90
6291;DHT22;3178;48.730;8.990;2023-03-14T17:00:38;8.60;99.90
6291;DHT22;3178;48.730;8.990;2023-03-14T17:03:04;8.60;99.90
6291;DHT22;3178;48.730;8.990;2023-03-14T17:05:31;8.50;99.90
6291;DHT22;3178;48.730;8.990;2023-03-14T17:07:56;8.50;99.90
6291;DHT22;3178;48.730;8.990;2023-03-14T17:10:22;8.50;99.90
6291;DHT22;3178;48.730;8.990;2023-03-14T17:12:48;8.40;99.90
6291;DHT22;3178;48.730;8.990;2023-03-14T17:15:13;8.30;99.90
6291;DHT22;3178;48.730;8.990;2023-03-14T17:17:39;8.20;99.90
6291;DHT22;3178;48.730;8.990;2023-03-14T17:20:06;8.00;99.90
6291;DHT22;3178;48.730;8.990;2023-03-14T17:22:34;7.90;99.90
6291;DHT22;3178;48.730;8.990;2023-03-14T17:25:00;7.80;99.90
6291;DHT22;3178;48.730;8.990;2023-03-14T17:27:27;7.80;99.90